Аэропорт: Курумоч. Самара

ICAO: UWWW

METAR:
2020-10-24 06:30:00
UWWW 240630Z 24004MPS 9999 BKN015 11/09 Q1005 R15/290150 NOSIG RMK QFE742/0990
METAR:
2020-10-24 04:54:00
TAF UWWW 240454Z 2406/2506 26007MPS 9999 BKN010 TX14/2411Z TN07/2501Z TEMPO 2406/2415 28008G15MPS 3000 -SHRA BR BKN006 BKN020CB BECMG 2415/2416 20003G09MPS TEMPO 2500/2506 4000 -RA BR BKN005